createdAt,value
2018-03-07T00:00:52.422Z,98840.11
2018-03-07T00:03:23.882Z,98846.66
2018-03-07T00:05:54.998Z,98843.84
2018-03-07T00:08:26.489Z,98842.23
2018-03-07T00:10:57.510Z,98842.23
2018-03-07T00:13:28.541Z,98839.05
2018-03-07T00:16:00.944Z,98836.80
2018-03-07T00:18:32.164Z,98833.62
2018-03-07T00:21:03.386Z,98831.64
2018-03-07T00:23:35.878Z,98836.80
2018-03-07T00:26:06.845Z,98828.55
2018-03-07T00:28:38.089Z,98828.59
2018-03-07T00:31:09.540Z,98834.11
2018-03-07T00:33:40.902Z,98825.07
2018-03-07T00:36:12.123Z,98834.50
2018-03-07T00:41:23.502Z,98831.47
2018-03-07T00:43:54.965Z,98830.64
2018-03-07T00:46:26.919Z,98830.60
2018-03-07T00:49:00.371Z,98828.28
2018-03-07T00:51:31.734Z,98832.19
2018-03-07T00:54:03.425Z,98833.19
2018-03-07T00:56:34.938Z,98832.52
2018-03-07T00:59:06.951Z,98835.30
2018-03-07T01:01:38.679Z,98832.57
2018-03-07T01:04:10.185Z,98841.45
2018-03-07T01:06:41.993Z,98836.73
2018-03-07T01:09:13.633Z,98830.05
2018-03-07T01:11:46.079Z,98837.86
2018-03-07T01:14:17.632Z,98835.70
2018-03-07T01:16:50.970Z,98830.97
2018-03-07T01:19:22.548Z,98830.45
2018-03-07T01:21:53.999Z,98828.39
2018-03-07T01:24:25.356Z,98828.89
2018-03-07T01:26:56.722Z,98829.05
2018-03-07T01:29:33.731Z,98832.20
2018-03-07T01:32:06.236Z,98831.55
2018-03-07T01:34:38.939Z,98828.02
2018-03-07T01:37:10.859Z,98835.44
2018-03-07T01:39:42.464Z,98830.52
2018-03-07T01:42:13.860Z,98831.77
2018-03-07T01:44:47.060Z,98834.07
2018-03-07T01:47:19.069Z,98820.37
2018-03-07T01:49:51.574Z,98826.05
2018-03-07T01:52:23.179Z,98830.52
2018-03-07T01:54:54.502Z,98830.02
2018-03-07T01:57:25.847Z,98822.47
2018-03-07T01:59:58.070Z,98820.89
2018-03-07T02:02:30.072Z,98824.87
2018-03-07T02:05:01.370Z,98820.10
2018-03-07T02:07:32.603Z,98817.62
2018-03-07T02:10:04.102Z,98829.63
2018-03-07T02:12:35.606Z,98824.06
2018-03-07T02:15:08.539Z,98827.41
2018-03-07T02:17:39.648Z,98828.08
2018-03-07T02:20:17.214Z,98823.86
2018-03-07T02:22:48.155Z,98822.13
2018-03-07T02:25:19.266Z,98832.16
2018-03-07T02:27:52.411Z,98830.88
2018-03-07T02:30:23.672Z,98827.44
2018-03-07T02:32:54.599Z,98825.56
2018-03-07T02:35:27.296Z,98829.95
2018-03-07T02:37:58.459Z,98820.75
2018-03-07T02:40:29.424Z,98827.20
2018-03-07T02:43:00.438Z,98823.44
2018-03-07T02:45:31.487Z,98821.19
2018-03-07T02:48:03.432Z,98821.97
2018-03-07T02:50:34.520Z,98819.09
2018-03-07T02:53:05.934Z,98817.30
2018-03-07T02:55:38.652Z,98817.02
2018-03-07T02:58:09.828Z,98819.18
2018-03-07T03:00:41.615Z,98822.65
2018-03-07T03:03:13.341Z,98827.66
2018-03-07T03:05:45.247Z,98820.97
2018-03-07T03:08:16.885Z,98826.05
2018-03-07T03:10:49.142Z,98820.97
2018-03-07T03:13:21.636Z,98820.72
2018-03-07T03:15:52.758Z,98826.52
2018-03-07T03:18:23.522Z,98825.73
2018-03-07T03:20:54.410Z,98821.89
2018-03-07T03:23:25.122Z,98828.95
2018-03-07T03:25:56.363Z,98827.85
2018-03-07T03:28:27.827Z,98835.14
2018-03-07T03:30:59.194Z,98831.93
2018-03-07T03:33:30.619Z,98827.27
2018-03-07T03:36:01.972Z,98825.70
2018-03-07T03:38:32.883Z,98820.92
2018-03-07T03:41:03.679Z,98830.23
2018-03-07T03:43:34.531Z,98832.33
2018-03-07T03:46:05.497Z,98832.33
2018-03-07T03:48:36.868Z,98833.91
2018-03-07T03:51:08.006Z,98830.31
2018-03-07T03:53:38.603Z,98829.86
2018-03-07T03:56:09.432Z,98830.80
2018-03-07T03:58:40.129Z,98829.23
2018-03-07T04:01:11.801Z,98822.28
2018-03-07T04:03:44.156Z,98830.70
2018-03-07T04:06:15.796Z,98835.87
2018-03-07T04:08:46.707Z,98826.23
2018-03-07T04:11:17.472Z,98828.16
2018-03-07T04:13:48.285Z,98831.33
2018-03-07T04:16:20.458Z,98815.70
2018-03-07T04:21:32.806Z,98825.00
2018-03-07T04:24:03.776Z,98832.92
2018-03-07T04:26:34.714Z,98835.69
2018-03-07T04:29:06.004Z,98833.84
2018-03-07T04:31:37.644Z,98839.23
2018-03-07T04:34:09.051Z,98832.19
2018-03-07T04:36:40.162Z,98832.81
2018-03-07T04:39:11.182Z,98841.86
2018-03-07T04:41:42.363Z,98841.61
2018-03-07T04:44:13.610Z,98847.83
2018-03-07T04:46:45.605Z,98842.17
2018-03-07T04:49:16.825Z,98853.17
2018-03-07T04:51:47.567Z,98846.38
2018-03-07T04:54:19.011Z,98843.34
2018-03-07T04:56:50.121Z,98843.15
2018-03-07T04:59:20.801Z,98841.73
2018-03-07T05:01:52.766Z,98831.06
2018-03-07T05:04:23.358Z,98832.71
2018-03-07T05:06:55.287Z,98842.16
2018-03-07T05:09:26.127Z,98840.25
2018-03-07T05:11:58.113Z,98847.95
2018-03-07T05:14:29.244Z,98843.93
2018-03-07T05:17:00.965Z,98846.61
2018-03-07T05:19:32.731Z,98849.52
2018-03-07T05:22:03.845Z,98849.87
2018-03-07T05:24:41.384Z,98846.30
2018-03-07T05:27:12.808Z,98844.72
2018-03-07T05:29:44.963Z,98846.14
2018-03-07T05:32:16.033Z,98849.02
2018-03-07T05:34:47.908Z,98851.92
2018-03-07T05:37:19.144Z,98851.03
2018-03-07T05:39:50.210Z,98853.33
2018-03-07T05:42:21.860Z,98864.61
2018-03-07T05:44:57.549Z,98861.62
2018-03-07T05:47:30.465Z,98864.41
2018-03-07T05:50:03.603Z,98868.74
2018-03-07T05:52:35.348Z,98873.61
2018-03-07T05:55:08.627Z,98865.16
2018-03-07T05:57:40.377Z,98871.20
2018-03-07T06:00:16.522Z,98872.59
2018-03-07T06:02:53.312Z,98871.27
2018-03-07T06:05:25.871Z,98868.22
2018-03-07T06:08:12.490Z,98863.83
2018-03-07T06:10:46.627Z,98866.71
2018-03-07T06:13:18.503Z,98862.84
2018-03-07T06:15:51.357Z,98866.48
2018-03-07T06:18:23.298Z,98868.77
2018-03-07T06:20:55.277Z,98861.23
2018-03-07T06:23:28.543Z,98861.09
2018-03-07T06:26:01.747Z,98864.34
2018-03-07T06:28:32.949Z,98874.28
2018-03-07T06:31:05.363Z,98869.16
2018-03-07T06:33:37.606Z,98873.70
2018-03-07T06:36:09.494Z,98877.86
2018-03-07T06:38:41.401Z,98872.83
2018-03-07T06:41:12.926Z,98877.68
2018-03-07T06:43:44.453Z,98870.45
2018-03-07T06:46:16.122Z,98874.76
2018-03-07T06:48:47.702Z,98876.08
2018-03-07T06:51:19.751Z,98882.45
2018-03-07T06:56:40.323Z,98892.16
2018-03-07T06:59:12.438Z,98893.99
2018-03-07T07:01:50.113Z,98885.36
2018-03-07T07:04:24.615Z,98857.87
2018-03-07T07:07:04.713Z,98881.05
2018-03-07T07:09:36.165Z,98875.78
2018-03-07T07:12:15.440Z,98874.33
2018-03-07T07:14:46.713Z,98849.34
2018-03-07T07:17:19.021Z,98892.86
2018-03-07T07:22:46.560Z,98923.56
2018-03-07T07:25:17.868Z,98927.03
2018-03-07T07:27:52.822Z,98923.44
2018-03-07T07:30:25.908Z,98905.72
2018-03-07T07:32:57.574Z,98925.96
2018-03-07T07:35:34.947Z,98926.39
2018-03-07T07:38:08.604Z,98923.71
2018-03-07T07:40:40.331Z,98936.95
2018-03-07T07:43:13.387Z,98934.80
2018-03-07T07:45:45.630Z,98942.48
2018-03-07T07:48:21.040Z,98939.81
2018-03-07T07:50:53.861Z,98945.62
2018-03-07T07:53:26.626Z,98939.30
2018-03-07T07:55:58.230Z,98939.28
2018-03-07T07:58:29.587Z,98933.24
2018-03-07T08:01:01.753Z,98937.98
2018-03-07T08:03:33.518Z,98945.57
2018-03-07T08:06:06.467Z,98950.48
2018-03-07T08:08:38.257Z,98954.64
2018-03-07T08:11:13.553Z,98961.47
2018-03-07T08:13:46.626Z,98967.36
2018-03-07T08:16:19.036Z,98961.00
2018-03-07T08:18:50.574Z,98979.52
2018-03-07T08:21:23.248Z,98978.80
2018-03-07T08:24:05.899Z,98976.03
2018-03-07T08:26:38.401Z,98974.13
2018-03-07T08:29:21.329Z,98975.02
2018-03-07T08:31:56.401Z,98969.22
2018-03-07T08:34:27.853Z,98946.77
2018-03-07T08:37:00.077Z,98962.06
2018-03-07T08:39:34.735Z,98966.01
2018-03-07T08:42:09.910Z,98951.70
2018-03-07T08:44:51.477Z,98972.58
2018-03-07T08:47:23.882Z,98962.39
2018-03-07T08:49:55.674Z,98958.82
2018-03-07T08:52:27.132Z,98960.98
2018-03-07T08:54:58.777Z,98969.72
2018-03-07T08:57:31.611Z,98951.42
2018-03-07T09:00:16.260Z,98973.16
2018-03-07T09:02:48.654Z,98961.12
2018-03-07T09:05:20.335Z,98969.81
2018-03-07T09:07:52.846Z,98961.83
2018-03-07T09:10:24.808Z,98970.59
2018-03-07T09:12:56.107Z,98978.12
2018-03-07T09:15:29.279Z,98974.39
2018-03-07T09:18:00.691Z,98977.95
2018-03-07T09:20:32.564Z,98974.16
2018-03-07T09:23:03.825Z,98976.38
2018-03-07T09:25:36.141Z,98979.13
2018-03-07T09:28:25.834Z,98975.22
2018-03-07T09:30:58.271Z,98982.05
2018-03-07T09:33:31.770Z,98990.30
2018-03-07T09:36:03.447Z,98992.05
2018-03-07T09:38:35.349Z,98991.53
2018-03-07T09:41:10.410Z,98998.75
2018-03-07T09:43:43.729Z,98994.79
2018-03-07T09:46:15.515Z,98996.48
2018-03-07T09:48:48.322Z,99014.46
2018-03-07T09:51:21.792Z,99009.19
2018-03-07T09:53:55.902Z,99017.16
2018-03-07T09:56:27.926Z,99000.52
2018-03-07T09:58:58.845Z,98995.30
2018-03-07T10:01:31.234Z,99000.55
2018-03-07T10:04:03.517Z,99001.03
2018-03-07T10:06:35.370Z,99014.25
2018-03-07T10:09:08.151Z,99010.51
2018-03-07T10:11:40.182Z,99020.11
2018-03-07T10:14:12.302Z,99003.75
2018-03-07T10:16:44.681Z,99009.58
2018-03-07T10:19:17.001Z,99028.47
2018-03-07T10:21:49.357Z,99029.04
2018-03-07T10:24:21.208Z,99028.58
2018-03-07T10:26:52.904Z,99037.30
2018-03-07T10:29:24.260Z,99032.66
2018-03-07T10:31:56.055Z,99036.91
2018-03-07T10:34:27.874Z,99049.02
2018-03-07T10:36:59.596Z,99044.18
2018-03-07T10:39:31.347Z,99036.64
2018-03-07T10:42:07.036Z,99050.13
2018-03-07T10:44:43.188Z,99057.49
2018-03-07T10:47:15.096Z,99049.25
2018-03-07T10:49:46.861Z,99058.19
2018-03-07T10:52:31.744Z,99057.90
2018-03-07T10:55:04.266Z,99056.38
2018-03-07T10:57:38.680Z,99052.67
2018-03-07T11:00:20.645Z,99060.42
2018-03-07T11:02:58.719Z,99052.96
2018-03-07T11:05:32.088Z,99056.53
2018-03-07T11:08:08.483Z,99042.49
2018-03-07T11:10:39.845Z,99055.80
2018-03-07T11:13:11.623Z,99060.56
2018-03-07T11:15:43.836Z,99051.28
2018-03-07T11:18:18.075Z,99053.81
2018-03-07T11:20:49.896Z,99058.77
2018-03-07T11:23:27.156Z,99065.96
2018-03-07T11:25:58.783Z,99067.08
2018-03-07T11:28:29.894Z,99064.75
2018-03-07T11:31:03.890Z,99074.59
2018-03-07T11:33:36.784Z,99052.84
2018-03-07T11:36:13.413Z,99045.31
2018-03-07T11:38:45.663Z,99067.02
2018-03-07T11:41:18.898Z,99074.24
2018-03-07T11:43:51.051Z,99059.25
2018-03-07T11:46:23.862Z,99065.63
2018-03-07T11:48:55.299Z,99069.71
2018-03-07T11:51:26.473Z,99076.38
2018-03-07T11:53:58.408Z,99077.98
2018-03-07T11:56:30.734Z,99074.23
2018-03-07T11:59:01.596Z,99076.20
2018-03-07T12:01:33.304Z,99076.35
2018-03-07T12:04:04.431Z,99077.35
2018-03-07T12:06:35.594Z,99074.59
2018-03-07T12:09:08.010Z,99061.05
2018-03-07T12:11:40.689Z,99077.64
2018-03-07T12:14:12.709Z,99075.27
2018-03-07T12:16:45.196Z,99074.22
2018-03-07T12:19:18.823Z,99062.98
2018-03-07T12:21:49.928Z,99068.44
2018-03-07T12:24:22.664Z,99061.72
2018-03-07T12:26:53.758Z,99060.87
2018-03-07T12:29:24.883Z,99051.91
2018-03-07T12:31:56.657Z,99052.06
2018-03-07T12:34:27.666Z,99055.41
2018-03-07T12:36:58.444Z,99043.84
2018-03-07T12:42:03.053Z,99042.16
2018-03-07T12:44:34.684Z,99054.34
2018-03-07T12:47:12.236Z,99056.54
2018-03-07T12:52:07.487Z,99054.99
2018-03-07T12:54:38.297Z,99060.49
2018-03-07T12:57:11.108Z,99060.09
2018-03-07T12:59:43.837Z,99054.41
2018-03-07T13:02:16.818Z,99056.02
2018-03-07T13:04:47.807Z,99045.87
2018-03-07T13:07:19.062Z,99047.61
2018-03-07T13:09:50.125Z,99044.55
2018-03-07T13:12:22.779Z,99039.33
2018-03-07T13:14:53.820Z,99043.27
2018-03-07T13:17:25.051Z,99049.03
2018-03-07T13:19:58.172Z,99049.18
2018-03-07T13:22:30.722Z,99047.28
2018-03-07T13:25:02.159Z,99047.56
2018-03-07T13:27:34.732Z,99052.63
2018-03-07T13:30:09.971Z,99048.70
2018-03-07T13:32:43.174Z,99044.26
2018-03-07T13:35:15.296Z,99046.33
2018-03-07T13:37:49.563Z,99018.75
2018-03-07T13:40:22.301Z,99042.78
2018-03-07T13:42:55.990Z,99049.86
2018-03-07T13:45:28.376Z,99049.80
2018-03-07T13:48:02.148Z,99038.67
2018-03-07T13:50:34.271Z,99042.09
2018-03-07T13:53:07.264Z,99047.81
2018-03-07T13:55:41.851Z,99051.71
2018-03-07T13:58:17.803Z,99050.45
2018-03-07T14:00:51.628Z,99054.28
2018-03-07T14:03:39.730Z,99046.05
2018-03-07T14:06:13.592Z,99052.20
2018-03-07T14:08:47.418Z,99054.05
2018-03-07T14:11:20.980Z,99055.83
2018-03-07T14:13:53.043Z,99059.53
2018-03-07T14:16:25.019Z,99056.45
2018-03-07T14:18:56.707Z,99044.94
2018-03-07T14:21:28.826Z,99055.20
2018-03-07T14:24:01.815Z,99054.56
2018-03-07T14:26:32.784Z,99046.23
2018-03-07T14:29:09.205Z,99047.39
2018-03-07T14:32:13.596Z,99052.71
2018-03-07T14:35:08.644Z,99045.64
2018-03-07T14:37:40.962Z,99028.25
2018-03-07T14:40:13.178Z,99051.21
2018-03-07T14:42:45.659Z,99054.62
2018-03-07T14:45:20.015Z,99061.35
2018-03-07T14:47:51.623Z,99043.55
2018-03-07T14:50:23.971Z,99059.27
2018-03-07T14:52:59.766Z,99066.77
2018-03-07T14:55:31.851Z,99040.36
2018-03-07T14:58:03.222Z,99062.73
2018-03-07T15:00:37.426Z,99062.67
2018-03-07T15:03:09.457Z,99059.53
2018-03-07T15:05:40.456Z,99065.25
2018-03-07T15:08:12.435Z,99062.86
2018-03-07T15:10:43.379Z,99042.02
2018-03-07T15:13:15.911Z,99059.48
2018-03-07T15:15:49.007Z,99065.05
2018-03-07T15:18:22.450Z,99057.92
2018-03-07T15:20:54.021Z,99072.64
2018-03-07T15:23:25.755Z,99065.80
2018-03-07T15:25:57.746Z,99064.59
2018-03-07T15:28:29.361Z,99073.92
2018-03-07T15:31:02.529Z,99063.50
2018-03-07T15:33:34.827Z,99083.91
2018-03-07T15:36:06.236Z,99080.20
2018-03-07T15:38:37.506Z,99081.95
2018-03-07T15:41:09.047Z,99084.94
2018-03-07T15:43:43.224Z,99085.34
2018-03-07T15:49:00.913Z,99048.02
2018-03-07T15:51:33.304Z,99094.86
2018-03-07T15:54:07.953Z,99098.64
2018-03-07T15:56:39.004Z,99092.16
2018-03-07T15:59:11.123Z,99097.37
2018-03-07T16:01:42.961Z,99097.64
2018-03-07T16:04:14.275Z,99096.97
2018-03-07T16:06:51.353Z,99098.05
2018-03-07T16:09:23.003Z,99103.45
2018-03-07T16:11:53.953Z,99086.89
2018-03-07T16:14:27.767Z,99106.63
2018-03-07T16:16:59.038Z,99078.22
2018-03-07T16:19:31.177Z,99098.47
2018-03-07T16:22:04.228Z,99103.59
2018-03-07T16:24:35.699Z,99101.36
2018-03-07T16:27:11.850Z,99105.12
2018-03-07T16:29:42.835Z,99098.45
2018-03-07T16:32:14.515Z,99091.52
2018-03-07T16:34:45.331Z,99110.53
2018-03-07T16:37:16.474Z,99111.03
2018-03-07T16:40:17.240Z,99098.62
2018-03-07T16:42:49.550Z,99116.11
2018-03-07T16:45:20.854Z,99120.31
2018-03-07T16:47:51.902Z,99113.84
2018-03-07T16:50:25.913Z,99120.42
2018-03-07T16:52:57.180Z,99123.36
2018-03-07T16:55:33.399Z,99123.88
2018-03-07T16:58:10.228Z,99116.52
2018-03-07T17:00:42.334Z,99135.62
2018-03-07T17:03:15.830Z,99008.16
2018-03-07T17:05:48.599Z,99148.70
2018-03-07T17:08:22.339Z,99155.27
2018-03-07T17:10:55.722Z,99164.17
2018-03-07T17:13:29.716Z,99163.30
2018-03-07T17:16:04.188Z,99173.49
2018-03-07T17:18:47.019Z,99169.35
2018-03-07T17:21:21.276Z,99179.28
2018-03-07T17:24:03.242Z,99182.60
2018-03-07T17:26:38.926Z,99189.33
2018-03-07T17:29:16.656Z,99198.72
2018-03-07T17:31:55.575Z,99153.24
2018-03-07T17:35:00.924Z,99196.53
2018-03-07T17:37:33.784Z,99213.22
2018-03-07T17:40:12.345Z,99218.58
2018-03-07T17:42:43.815Z,99220.19
2018-03-07T17:45:30.268Z,99215.28
2018-03-07T17:48:03.260Z,99217.61
2018-03-07T17:50:37.744Z,99226.99
2018-03-07T17:53:09.904Z,99226.37
2018-03-07T17:55:43.894Z,99223.90
2018-03-07T17:58:15.323Z,99235.59
2018-03-07T18:00:46.846Z,99223.23
2018-03-07T18:03:21.824Z,99238.34
2018-03-07T18:05:54.480Z,99245.64
2018-03-07T18:08:27.310Z,99250.28
2018-03-07T18:11:02.166Z,99243.87
2018-03-07T18:13:37.173Z,99250.98
2018-03-07T18:16:09.226Z,99254.73
2018-03-07T18:18:40.240Z,99257.31
2018-03-07T18:21:11.388Z,99255.84
2018-03-07T18:23:42.191Z,99255.08
2018-03-07T18:26:13.897Z,99258.71
2018-03-07T18:28:47.457Z,99258.77
2018-03-07T18:31:29.651Z,99258.27
2018-03-07T18:34:03.044Z,99256.64
2018-03-07T18:36:34.715Z,99260.81
2018-03-07T18:39:06.837Z,99263.75
2018-03-07T18:41:38.699Z,99266.63
2018-03-07T18:44:12.151Z,99266.45
2018-03-07T18:46:43.508Z,99260.91
2018-03-07T18:49:14.293Z,99272.82
2018-03-07T18:51:47.359Z,99273.02
2018-03-07T18:54:18.943Z,99283.02
2018-03-07T18:56:49.619Z,99277.77
2018-03-07T18:59:25.661Z,99276.80
2018-03-07T19:02:00.029Z,99275.35
2018-03-07T19:04:32.692Z,99278.81
2018-03-07T19:07:03.742Z,99282.45
2018-03-07T19:09:34.936Z,99272.97
2018-03-07T19:12:08.512Z,99286.71
2018-03-07T19:14:40.313Z,99281.97
2018-03-07T19:17:11.309Z,99283.15
2018-03-07T19:19:46.415Z,99279.55
2018-03-07T19:22:17.355Z,99287.20
2018-03-07T19:24:49.177Z,99288.95
2018-03-07T19:27:21.949Z,99290.25
2018-03-07T19:29:52.916Z,99278.34
2018-03-07T19:32:24.604Z,99292.89
2018-03-07T19:34:55.642Z,99297.95
2018-03-07T19:37:36.986Z,99295.39
2018-03-07T19:40:08.177Z,99297.71
2018-03-07T19:42:38.951Z,99301.88
2018-03-07T19:45:10.316Z,99302.81
2018-03-07T19:47:44.045Z,99303.61
2018-03-07T19:50:20.080Z,99311.17
2018-03-07T19:52:51.451Z,99308.73
2018-03-07T19:55:24.718Z,99307.27
2018-03-07T19:57:59.503Z,99316.28
2018-03-07T20:00:32.142Z,99143.89
2018-03-07T20:03:05.739Z,99317.31
2018-03-07T20:05:38.521Z,99319.77
2018-03-07T20:08:09.610Z,99323.04
2018-03-07T20:10:40.268Z,99307.47
2018-03-07T20:13:11.379Z,99321.00
2018-03-07T20:15:42.511Z,99317.37
2018-03-07T20:18:13.493Z,99324.35
2018-03-07T20:20:45.246Z,99322.08
2018-03-07T20:23:16.209Z,99325.92
2018-03-07T20:25:47.966Z,99329.97
2018-03-07T20:30:54.443Z,99343.14
2018-03-07T20:33:25.033Z,99344.35
2018-03-07T20:35:55.839Z,99347.89
2018-03-07T20:38:28.482Z,99346.43
2018-03-07T20:40:59.486Z,99351.52
2018-03-07T20:43:31.321Z,99354.18
2018-03-07T20:46:03.249Z,99365.70
2018-03-07T20:48:34.501Z,99360.11
2018-03-07T20:51:05.370Z,99365.25
2018-03-07T20:53:36.156Z,99376.09
2018-03-07T20:56:07.157Z,99364.05
2018-03-07T20:58:38.524Z,99377.24
2018-03-07T21:03:39.806Z,99379.72
2018-03-07T21:06:11.345Z,99389.06
2018-03-07T21:08:44.009Z,99400.70
2018-03-07T21:11:15.969Z,99403.59
2018-03-07T21:13:48.388Z,99400.91
2018-03-07T21:16:20.387Z,99409.38
2018-03-07T21:18:53.145Z,99417.59
2018-03-07T21:21:25.963Z,99426.80
2018-03-07T21:23:58.155Z,99430.78
2018-03-07T21:26:30.155Z,99440.30
2018-03-07T21:29:02.617Z,99449.58
2018-03-07T21:31:39.846Z,99451.14
2018-03-07T21:34:14.234Z,99451.70
2018-03-07T21:36:45.206Z,99455.92
2018-03-07T21:39:17.109Z,99455.33
2018-03-07T21:41:47.898Z,99459.92
2018-03-07T21:44:22.696Z,99450.72
2018-03-07T21:46:53.873Z,99468.98
2018-03-07T21:49:26.583Z,99472.23
2018-03-07T21:51:57.375Z,99477.04
2018-03-07T21:54:28.258Z,99472.02
2018-03-07T21:57:00.643Z,99471.14
2018-03-07T21:59:34.492Z,99475.83
2018-03-07T22:02:05.581Z,99479.25
2018-03-07T22:04:37.502Z,99481.52
2018-03-07T22:07:09.215Z,99479.38
2018-03-07T22:09:40.511Z,99483.76
2018-03-07T22:12:11.662Z,99489.00
2018-03-07T22:14:43.264Z,99501.33
2018-03-07T22:17:14.773Z,99495.04
2018-03-07T22:19:53.525Z,99504.23
2018-03-07T22:22:25.166Z,99508.07
2018-03-07T22:24:56.381Z,99516.97
2018-03-07T22:27:27.416Z,99519.94
2018-03-07T22:29:58.289Z,99529.98
2018-03-07T22:32:29.614Z,99528.66
2018-03-07T22:35:01.251Z,99532.16
2018-03-07T22:37:33.191Z,99529.19
2018-03-07T22:40:04.685Z,99541.13
2018-03-07T22:42:36.637Z,99545.34
2018-03-07T22:45:08.676Z,99548.64
2018-03-07T22:47:40.161Z,99549.69
2018-03-07T22:50:12.783Z,99545.47
2018-03-07T22:52:43.579Z,99554.75
2018-03-07T22:55:14.916Z,99559.02
2018-03-07T22:57:46.074Z,99567.42
2018-03-07T23:00:25.920Z,99564.53
2018-03-07T23:02:56.976Z,99566.92
2018-03-07T23:05:28.353Z,99567.66
2018-03-07T23:07:59.508Z,99578.80
2018-03-07T23:10:31.626Z,99570.88
2018-03-07T23:13:03.114Z,99580.51
2018-03-07T23:15:35.057Z,99583.41
2018-03-07T23:18:06.497Z,99587.35
2018-03-07T23:20:43.723Z,99588.43
2018-03-07T23:23:17.053Z,99592.19
2018-03-07T23:25:48.305Z,99591.91
2018-03-07T23:28:19.595Z,99602.94
2018-03-07T23:30:51.326Z,99598.55
2018-03-07T23:33:22.724Z,99602.62
2018-03-07T23:35:54.035Z,99597.92
2018-03-07T23:38:25.095Z,99605.98
2018-03-07T23:40:56.230Z,99608.00
2018-03-07T23:43:27.680Z,99605.42
2018-03-07T23:45:58.987Z,99612.42
2018-03-07T23:48:30.343Z,99608.68
2018-03-07T23:51:01.546Z,99624.69
2018-03-07T23:53:33.698Z,99622.36
2018-03-07T23:56:06.100Z,99627.14
2018-03-07T23:58:38.966Z,99610.47
